Time;durP1;ratioP1;P1;durP2;ratioP2;P2;SDS_P1;SDS_P2;PMS_P1;PMS_P2;Temp;Humidity;BMP_temperature;BMP_pressure;BME280_temperature;BME280_humidity;BME280_pressure;Samples;Min_cycle;Max_cycle;Signal;HPM_P1;HPM_P2
2023/09/30 00:00:47;;;;;;;9.37;4.57;;;18.30;1.00;;;;;;5032463;28;20420;-75
2023/09/30 00:03:12;;;;;;;9.27;4.80;;;18.40;1.00;;;;;;5032423;28;20446;-75
2023/09/30 00:05:38;;;;;;;7.77;5.00;;;18.30;1.00;;;;;;5032687;28;20265;-74
2023/09/30 00:08:04;;;;;;;11.00;5.90;;;18.30;1.00;;;;;;5032283;28;20189;-73
2023/09/30 00:10:30;;;;;;;9.13;5.03;;;18.20;1.00;;;;;;5032998;28;20535;-76
2023/09/30 00:12:56;;;;;;;11.43;5.03;;;18.10;1.00;;;;;;5032505;28;20468;-74
2023/09/30 00:15:22;;;;;;;10.10;5.60;;;18.10;1.00;;;;;;5031947;28;20186;-74
2023/09/30 00:17:48;;;;;;;7.67;4.97;;;18.00;1.00;;;;;;5032464;28;20519;-75
2023/09/30 00:20:14;;;;;;;7.40;4.90;;;18.00;1.00;;;;;;5031976;28;20254;-75
2023/09/30 00:22:41;;;;;;;8.97;5.50;;;17.90;1.00;;;;;;5032390;28;20201;-74
2023/09/30 00:25:07;;;;;;;8.73;4.77;;;17.80;1.00;;;;;;5031842;28;20516;-73
2023/09/30 00:27:32;;;;;;;12.07;5.23;;;17.80;1.00;;;;;;5032275;28;20432;-74
2023/09/30 00:29:58;;;;;;;8.63;4.97;;;17.80;1.00;;;;;;5032091;28;20711;-74
2023/09/30 00:32:23;;;;;;;10.67;4.90;;;17.80;1.00;;;;;;5031858;28;20300;-75
2023/09/30 00:34:49;;;;;;;7.20;4.57;;;17.70;1.00;;;;;;5031871;28;20191;-76
2023/09/30 00:37:14;;;;;;;8.23;4.70;;;17.80;1.00;;;;;;5031654;28;20329;-74
2023/09/30 00:39:40;;;;;;;8.97;5.20;;;17.80;1.00;;;;;;5031015;28;20547;-74
2023/09/30 00:42:06;;;;;;;7.50;5.30;;;17.90;1.00;;;;;;5031639;28;20295;-77
2023/09/30 00:44:33;;;;;;;12.00;5.10;;;17.90;1.00;;;;;;5030839;28;20177;-76
2023/09/30 00:46:59;;;;;;;11.10;4.77;;;18.00;1.00;;;;;;5031866;28;20428;-75
2023/09/30 00:49:25;;;;;;;7.90;4.93;;;18.00;1.00;;;;;;5031529;28;20988;-75
2023/09/30 00:51:51;;;;;;;9.20;5.20;;;18.00;1.00;;;;;;5031749;28;20463;-75
2023/09/30 00:54:18;;;;;;;7.37;4.70;;;18.10;1.00;;;;;;5046627;28;20417;-75
2023/09/30 00:56:45;;;;;;;8.67;5.17;;;18.10;1.00;;;;;;5031627;28;20490;-75
2023/09/30 00:59:13;;;;;;;10.33;4.83;;;18.10;1.00;;;;;;5031328;28;20420;-76
2023/09/30 01:01:39;;;;;;;7.00;4.60;;;18.10;1.00;;;;;;5031591;28;20935;-75
2023/09/30 01:04:05;;;;;;;8.20;5.30;;;18.00;1.00;;;;;;5031678;28;20753;-77
2023/09/30 01:06:31;;;;;;;10.93;5.10;;;17.90;1.00;;;;;;5031065;28;20470;-75
2023/09/30 01:08:57;;;;;;;7.43;4.90;;;17.80;1.00;;;;;;5031227;28;20433;-75
2023/09/30 01:11:23;;;;;;;6.27;4.30;;;17.80;1.00;;;;;;5030620;28;20241;-74
2023/09/30 01:13:49;;;;;;;10.60;5.07;;;17.90;1.00;;;;;;5031510;28;20235;-75
2023/09/30 01:16:14;;;;;;;8.10;4.67;;;18.00;1.00;;;;;;5030898;28;20222;-74
2023/09/30 01:18:42;;;;;;;9.93;5.33;;;18.00;1.00;;;;;;5031392;28;20846;-76
2023/09/30 01:21:08;;;;;;;10.13;5.10;;;18.00;1.00;;;;;;5031180;28;20284;-74
2023/09/30 01:23:38;;;;;;;9.57;5.17;;;18.00;1.00;;;;;;5023037;28;20453;-74
2023/09/30 01:26:12;;;;;;;8.37;4.53;;;17.90;1.00;;;;;;5031070;28;20428;-75
2023/09/30 01:28:38;;;;;;;9.30;4.73;;;17.90;1.00;;;;;;5038727;28;20515;-76
2023/09/30 01:31:05;;;;;;;8.00;5.13;;;17.80;1.00;;;;;;5031026;28;20822;-75
2023/09/30 01:33:31;;;;;;;11.17;5.20;;;17.70;1.00;;;;;;5030730;28;20873;-75
2023/09/30 01:35:57;;;;;;;7.90;5.20;;;17.70;1.00;;;;;;5030514;28;20566;-75
2023/09/30 01:38:23;;;;;;;7.60;4.93;;;17.60;1.00;;;;;;5030886;28;20432;-75
2023/09/30 01:40:49;;;;;;;8.40;5.30;;;17.50;1.00;;;;;;5030797;28;20177;-76
2023/09/30 01:43:15;;;;;;;8.17;4.93;;;17.50;1.00;;;;;;5030550;28;20189;-76
2023/09/30 01:45:41;;;;;;;8.20;5.03;;;17.40;1.00;;;;;;5030822;28;20185;-76
2023/09/30 01:48:07;;;;;;;8.07;4.73;;;17.40;1.00;;;;;;5030647;28;20444;-77
2023/09/30 01:50:32;;;;;;;8.20;5.10;;;17.50;1.00;;;;;;5045290;28;20517;-77
2023/09/30 01:52:58;;;;;;;8.73;4.93;;;17.50;1.00;;;;;;5030567;28;20209;-75
2023/09/30 01:55:24;;;;;;;7.40;4.80;;;17.50;1.00;;;;;;5030195;28;20193;-75
2023/09/30 01:57:49;;;;;;;10.27;4.43;;;17.50;1.00;;;;;;5030555;28;20679;-75
2023/09/30 02:00:14;;;;;;;8.30;5.10;;;17.50;1.00;;;;;;5030146;28;20186;-77
2023/09/30 02:02:41;;;;;;;6.03;4.47;;;17.50;1.00;;;;;;5030635;28;20208;-75
2023/09/30 02:05:10;;;;;;;7.50;4.67;;;17.60;1.00;;;;;;5030572;28;20178;-75
2023/09/30 02:07:36;;;;;;;6.50;4.47;;;17.60;1.00;;;;;;5044553;28;20440;-76
2023/09/30 02:10:02;;;;;;;6.93;4.90;;;17.50;1.00;;;;;;5030352;28;20428;-77
2023/09/30 02:12:30;;;;;;;6.20;4.47;;;17.40;1.00;;;;;;5030168;28;20291;-73
2023/09/30 02:14:57;;;;;;;9.50;4.73;;;17.40;1.00;;;;;;5030186;28;20429;-77
2023/09/30 02:17:22;;;;;;;7.23;4.50;;;17.40;1.00;;;;;;5029582;28;20448;-75
2023/09/30 02:19:48;;;;;;;6.83;4.33;;;17.40;1.00;;;;;;5029875;28;20796;-77
2023/09/30 02:22:15;;;;;;;7.53;4.83;;;17.30;1.00;;;;;;5029800;28;20210;-73
2023/09/30 02:24:40;;;;;;;5.90;4.60;;;17.30;1.00;;;;;;5029943;28;20428;-75
2023/09/30 02:27:06;;;;;;;6.70;4.70;;;17.10;1.00;;;;;;5030024;28;20225;-75
2023/09/30 02:29:32;;;;;;;10.03;4.60;;;16.90;1.00;;;;;;5030008;28;20272;-75
2023/09/30 02:31:57;;;;;;;6.93;4.87;;;16.80;1.00;;;;;;5029846;28;20583;-75
2023/09/30 02:34:23;;;;;;;11.63;5.00;;;16.80;1.00;;;;;;5029168;28;20655;-76
2023/09/30 02:36:49;;;;;;;7.23;4.97;;;16.70;1.00;;;;;;5029671;28;20178;-76
2023/09/30 02:39:16;;;;;;;6.43;4.37;;;16.50;1.00;;;;;;5030057;28;20960;-76
2023/09/30 02:41:42;;;;;;;7.20;4.87;;;16.50;1.00;;;;;;5029037;28;20220;-75
2023/09/30 02:44:07;;;;;;;6.33;4.77;;;16.50;1.00;;;;;;5029754;28;20431;-75
2023/09/30 02:46:33;;;;;;;7.00;4.30;;;16.50;1.00;;;;;;5029779;28;20420;-75
2023/09/30 02:49:01;;;;;;;8.03;4.43;;;16.40;1.00;;;;;;5029541;28;20222;-74
2023/09/30 02:51:26;;;;;;;10.10;4.33;;;16.40;1.00;;;;;;5029123;28;20659;-75
2023/09/30 02:53:52;;;;;;;8.27;4.87;;;16.40;1.00;;;;;;5029564;28;20494;-75
2023/09/30 02:56:19;;;;;;;6.67;4.10;;;16.40;1.00;;;;;;5028975;28;20210;-75
2023/09/30 02:58:45;;;;;;;6.90;4.30;;;16.40;1.00;;;;;;5029625;28;20268;-75
2023/09/30 03:01:16;;;;;;;7.20;4.80;;;16.40;1.00;;;;;;5029245;28;20451;-75
2023/09/30 03:03:43;;;;;;;7.00;4.73;;;16.50;1.00;;;;;;5029757;28;20747;-74
2023/09/30 03:06:10;;;;;;;7.70;4.47;;;16.50;1.00;;;;;;5029358;28;20441;-74
2023/09/30 03:08:36;;;;;;;7.30;4.60;;;16.50;1.00;;;;;;5028803;28;20428;-75
2023/09/30 03:11:02;;;;;;;10.07;4.63;;;16.50;1.00;;;;;;5029080;28;20982;-75
2023/09/30 03:13:27;;;;;;;10.93;4.77;;;16.50;1.00;;;;;;5029044;28;20218;-75
2023/09/30 03:15:53;;;;;;;8.90;4.77;;;16.40;1.00;;;;;;5029126;28;20192;-74
2023/09/30 03:18:26;;;;;;;9.80;4.27;;;16.30;1.00;;;;;;5029297;28;20204;-76
2023/09/30 03:21:00;;;;;;;9.83;4.90;;;16.10;1.00;;;;;;5021864;28;20656;-74
2023/09/30 03:23:30;;;;;;;6.87;4.90;;;16.10;1.00;;;;;;5028923;28;20507;-75
2023/09/30 03:25:59;;;;;;;13.63;5.77;;;16.10;1.00;;;;;;5029194;28;20424;-75
2023/09/30 03:28:26;;;;;;;8.30;5.40;;;16.10;1.00;;;;;;5028599;28;20460;-74
2023/09/30 03:30:52;;;;;;;5.40;4.37;;;16.30;1.00;;;;;;5028954;28;20460;-75
2023/09/30 03:33:17;;;;;;;12.13;4.80;;;16.30;1.00;;;;;;5029120;28;21060;-76
2023/09/30 03:35:44;;;;;;;10.40;4.77;;;16.40;1.00;;;;;;5028548;28;20178;-74
2023/09/30 03:38:10;;;;;;;8.23;5.03;;;16.40;1.00;;;;;;5028617;28;20173;-77
2023/09/30 03:40:38;;;;;;;8.80;5.20;;;16.50;1.00;;;;;;5029161;28;20489;-74
2023/09/30 03:43:05;;;;;;;9.00;5.27;;;16.40;1.00;;;;;;5028956;28;20181;-75
2023/09/30 03:45:32;;;;;;;8.23;4.73;;;16.30;1.00;;;;;;5028812;28;20425;-75
2023/09/30 03:47:58;;;;;;;10.70;4.77;;;16.40;1.00;;;;;;5028976;28;20965;-76
2023/09/30 03:50:24;;;;;;;7.93;4.90;;;16.40;1.00;;;;;;5028561;28;20428;-73
2023/09/30 03:52:50;;;;;;;7.90;5.07;;;16.40;1.00;;;;;;5044082;28;20218;-74
2023/09/30 03:55:17;;;;;;;9.70;5.60;;;16.40;1.00;;;;;;5028825;28;20178;-75
2023/09/30 03:57:47;;;;;;;7.37;5.20;;;16.40;1.00;;;;;;5028348;28;20182;-75
2023/09/30 04:00:18;;;;;;;6.90;4.97;;;16.30;1.00;;;;;;5029232;28;20416;-74
2023/09/30 04:02:48;;;;;;;6.27;4.80;;;16.30;1.00;;;;;;5028594;28;20448;-75
2023/09/30 04:05:14;;;;;;;7.90;4.33;;;16.30;1.00;;;;;;5029040;28;20424;-75
2023/09/30 04:07:41;;;;;;;7.07;4.87;;;16.20;1.00;;;;;;5028332;28;20433;-74
2023/09/30 04:10:08;;;;;;;6.97;4.40;;;16.10;1.00;;;;;;5028535;28;20511;-76
2023/09/30 04:12:33;;;;;;;6.27;4.00;;;16.00;1.00;;;;;;5028330;28;20456;-76
2023/09/30 04:15:00;;;;;;;7.83;4.50;;;15.90;1.00;;;;;;5028893;28;20421;-75
2023/09/30 04:17:26;;;;;;;7.70;5.33;;;15.80;1.00;;;;;;5028313;28;20174;-76
2023/09/30 04:19:52;;;;;;;8.23;4.87;;;15.70;1.00;;;;;;5029212;28;20424;-74
2023/09/30 04:22:21;;;;;;;11.83;4.37;;;15.80;1.00;;;;;;5028668;28;20822;-75
2023/09/30 04:24:49;;;;;;;12.90;4.90;;;15.80;1.00;;;;;;5028042;28;20731;-75
2023/09/30 04:27:14;;;;;;;6.37;4.73;;;15.80;1.00;;;;;;5028767;28;20486;-75
2023/09/30 04:29:41;;;;;;;8.00;4.30;;;15.90;1.00;;;;;;5028697;28;20424;-75
2023/09/30 04:32:07;;;;;;;5.73;4.33;;;15.80;1.00;;;;;;5032113;28;20205;-75
2023/09/30 04:34:32;;;;;;;9.97;5.00;;;15.80;1.00;;;;;;5031668;28;20515;-74
2023/09/30 04:36:59;;;;;;;13.47;4.53;;;15.70;1.00;;;;;;5031978;28;20494;-74
2023/09/30 04:39:25;;;;;;;8.30;5.33;;;15.70;1.00;;;;;;5031142;28;20834;-75
2023/09/30 04:41:50;;;;;;;7.20;4.80;;;15.70;1.00;;;;;;5031394;28;20788;-75
2023/09/30 04:44:16;;;;;;;8.13;5.10;;;15.70;1.00;;;;;;5032076;28;20185;-74
2023/09/30 04:46:45;;;;;;;8.97;4.60;;;15.60;1.00;;;;;;5025928;28;20186;-75
2023/09/30 04:49:12;;;;;;;6.77;4.60;;;15.60;1.00;;;;;;5031833;28;20277;-75
2023/09/30 04:51:39;;;;;;;7.03;4.50;;;15.50;1.00;;;;;;5031512;28;20444;-75
2023/09/30 04:54:08;;;;;;;6.50;4.20;;;15.50;1.00;;;;;;5031860;28;20608;-74
2023/09/30 04:56:34;;;;;;;7.73;4.70;;;15.40;1.00;;;;;;5031249;28;20449;-75
2023/09/30 04:59:01;;;;;;;7.60;4.80;;;15.20;1.00;;;;;;5030580;28;20432;-76
2023/09/30 05:01:28;;;;;;;7.20;4.50;;;15.30;1.00;;;;;;5031669;28;20947;-76
2023/09/30 05:03:54;;;;;;;9.10;4.80;;;15.30;1.00;;;;;;5046993;28;20427;-75
2023/09/30 05:06:19;;;;;;;9.63;5.20;;;15.20;1.00;;;;;;5031238;28;20424;-75
2023/09/30 05:08:45;;;;;;;8.20;5.13;;;15.10;1.00;;;;;;5031126;28;20269;-76
2023/09/30 05:11:10;;;;;;;8.07;4.90;;;15.10;1.00;;;;;;5031462;28;20221;-75
2023/09/30 05:13:36;;;;;;;9.03;5.17;;;15.10;1.00;;;;;;5031192;28;20202;-75
2023/09/30 05:16:03;;;;;;;9.97;5.13;;;15.10;1.00;;;;;;5031163;28;20182;-75
2023/09/30 05:18:29;;;;;;;6.80;4.57;;;15.10;1.00;;;;;;5031386;28;20189;-75
2023/09/30 05:20:55;;;;;;;8.17;4.97;;;15.00;1.00;;;;;;5030090;28;20428;-74
2023/09/30 05:23:20;;;;;;;6.33;4.90;;;15.00;1.00;;;;;;5026504;28;20428;-74
2023/09/30 05:25:46;;;;;;;11.63;4.60;;;15.00;1.00;;;;;;5030842;28;20506;-75
2023/09/30 05:28:13;;;;;;;10.80;5.17;;;15.10;1.00;;;;;;5031208;28;20208;-74
2023/09/30 05:30:40;;;;;;;9.00;4.60;;;15.00;1.00;;;;;;5024115;28;20569;-74
2023/09/30 05:33:06;;;;;;;8.70;4.93;;;15.00;1.00;;;;;;5031041;28;20714;-75
2023/09/30 05:35:32;;;;;;;11.80;5.07;;;15.00;1.00;;;;;;5030195;28;20444;-78
2023/09/30 05:37:58;;;;;;;8.00;5.00;;;15.60;1.00;;;;;;5030953;28;20435;-75
2023/09/30 05:40:26;;;;;;;8.17;4.53;;;15.00;1.00;;;;;;5030914;28;20248;-76
2023/09/30 05:42:53;;;;;;;6.20;4.70;;;14.80;1.00;;;;;;5029302;28;21228;-75
2023/09/30 05:45:19;;;;;;;8.40;5.70;;;15.00;1.00;;;;;;5030766;28;20436;-74
2023/09/30 05:47:45;;;;;;;9.17;6.57;;;15.00;1.00;;;;;;5030443;28;20436;-74
2023/09/30 05:50:14;;;;;;;14.03;8.27;;;15.10;1.00;;;;;;5030619;28;20193;-75
2023/09/30 05:52:40;;;;;;;16.73;8.70;;;15.20;1.00;;;;;;5030334;28;20210;-76
2023/09/30 05:55:06;;;;;;;13.73;9.00;;;15.30;1.00;;;;;;5030616;28;20457;-77
2023/09/30 05:57:32;;;;;;;14.70;9.70;;;15.40;1.00;;;;;;5031002;28;20424;-76
2023/09/30 05:59:58;;;;;;;15.87;9.07;;;15.60;1.00;;;;;;5030277;28;20507;-74
2023/09/30 06:02:23;;;;;;;13.53;8.73;;;15.60;1.00;;;;;;5030579;28;20271;-74
2023/09/30 06:04:50;;;;;;;14.87;9.20;;;15.70;1.00;;;;;;5030111;28;20243;-74
2023/09/30 06:07:16;;;;;;;18.43;8.40;;;15.70;1.00;;;;;;5030526;28;20244;-76
2023/09/30 06:09:42;;;;;;;15.97;8.70;;;15.80;1.00;;;;;;5030069;28;20451;-74
2023/09/30 06:12:08;;;;;;;14.90;10.00;;;15.90;1.00;;;;;;5030554;28;20283;-74
2023/09/30 06:14:33;;;;;;;16.27;9.37;;;15.80;1.00;;;;;;5030456;28;20956;-74
2023/09/30 06:16:59;;;;;;;13.00;8.60;;;15.80;1.00;;;;;;5029776;28;20182;-75
2023/09/30 06:19:25;;;;;;;15.00;9.23;;;15.90;1.00;;;;;;5045402;28;20189;-76
2023/09/30 06:21:51;;;;;;;12.77;9.27;;;16.00;1.00;;;;;;5029760;28;20280;-76
2023/09/30 06:24:19;;;;;;;15.07;9.97;;;16.10;1.00;;;;;;5030128;28;20435;-74
2023/09/30 06:26:45;;;;;;;15.80;10.13;;;16.30;1.00;;;;;;5029515;28;20424;-75
2023/09/30 06:29:11;;;;;;;17.43;9.70;;;16.50;1.00;;;;;;5030210;28;20855;-74
2023/09/30 06:31:37;;;;;;;14.77;9.43;;;16.70;1.00;;;;;;5029545;28;20197;-75
2023/09/30 06:34:04;;;;;;;15.70;9.63;;;16.80;1.00;;;;;;5029771;28;20479;-75
2023/09/30 06:36:29;;;;;;;14.40;9.60;;;16.90;1.00;;;;;;5029667;28;20220;-74
2023/09/30 06:38:55;;;;;;;14.90;10.13;;;16.90;1.00;;;;;;5028155;28;20428;-75
2023/09/30 06:41:20;;;;;;;16.63;10.27;;;17.00;1.00;;;;;;5029690;28;20198;-75
2023/09/30 06:43:46;;;;;;;18.30;10.10;;;17.20;1.00;;;;;;5029474;28;20197;-76
2023/09/30 06:46:12;;;;;;;16.67;9.57;;;17.20;1.00;;;;;;5029785;28;20197;-75
2023/09/30 06:48:40;;;;;;;14.90;9.60;;;17.20;1.00;;;;;;5028977;28;20221;-77
2023/09/30 06:51:06;;;;;;;14.60;10.23;;;17.20;1.00;;;;;;5029626;28;20473;-75
2023/09/30 06:53:31;;;;;;;17.50;10.20;;;17.20;1.00;;;;;;5028679;28;20472;-74
2023/09/30 06:55:57;;;;;;;18.43;10.40;;;17.30;1.00;;;;;;5028988;28;20205;-74
2023/09/30 06:58:23;;;;;;;17.93;10.00;;;17.50;1.00;;;;;;5029542;28;20205;-76
2023/09/30 07:00:55;;;;;;;14.13;9.30;;;17.80;1.00;;;;;;5028953;28;20261;-75
2023/09/30 07:03:20;;;;;;;17.40;9.90;;;17.80;1.00;;;;;;5029573;28;20184;-72
2023/09/30 07:05:49;;;;;;;19.80;10.37;;;18.00;1.00;;;;;;5028907;28;20421;-74
2023/09/30 07:08:16;;;;;;;20.27;10.47;;;17.90;1.00;;;;;;5029080;28;20292;-73
2023/09/30 07:10:42;;;;;;;16.80;10.43;;;18.00;1.00;;;;;;5028722;28;20499;-73
2023/09/30 07:13:08;;;;;;;17.13;10.43;;;18.30;1.00;;;;;;5029243;28;20563;-75
2023/09/30 07:15:33;;;;;;;16.43;10.27;;;18.10;1.00;;;;;;5029109;28;20177;-74
2023/09/30 07:17:59;;;;;;;18.80;10.70;;;18.20;1.00;;;;;;5028926;28;20265;-74
2023/09/30 07:20:25;;;;;;;19.70;10.57;;;18.40;1.00;;;;;;5029392;28;20189;-74
2023/09/30 07:22:51;;;;;;;16.83;11.00;;;18.50;1.00;;;;;;5027935;28;20205;-74
2023/09/30 07:25:17;;;;;;;16.47;10.50;;;18.70;1.00;;;;;;5029048;28;20190;-75
2023/09/30 07:27:45;;;;;;;17.67;10.40;;;18.70;1.00;;;;;;5028666;28;20787;-73
2023/09/30 07:30:14;;;;;;;16.87;10.30;;;18.70;1.00;;;;;;5028943;28;20941;-74
2023/09/30 07:32:42;;;;;;;15.77;9.50;;;19.00;1.00;;;;;;5027640;28;20475;-74
2023/09/30 07:35:08;;;;;;;18.57;10.00;;;19.20;1.00;;;;;;5019507;28;20432;-74
2023/09/30 07:37:33;;;;;;;16.13;10.10;;;19.40;1.00;;;;;;5032441;28;20417;-74
2023/09/30 07:39:59;;;;;;;14.50;10.03;;;19.50;1.00;;;;;;5028624;28;20790;-74
2023/09/30 07:42:25;;;;;;;16.90;10.20;;;19.40;1.00;;;;;;5029493;28;20223;-74
2023/09/30 07:44:51;;;;;;;17.30;10.33;;;19.50;1.00;;;;;;5028387;28;20192;-74
2023/09/30 07:47:17;;;;;;;16.93;8.77;;;19.50;1.00;;;;;;5028936;28;20203;-73
2023/09/30 07:49:42;;;;;;;17.83;9.70;;;19.40;1.00;;;;;;5029227;28;20420;-74
2023/09/30 07:52:08;;;;;;;19.83;9.10;;;19.50;1.00;;;;;;5024971;28;20695;-74
2023/09/30 07:54:34;;;;;;;15.63;9.47;;;19.70;1.00;;;;;;5025171;28;20190;-76
2023/09/30 07:56:59;;;;;;;15.37;9.23;;;19.70;1.00;;;;;;5024388;28;20178;-76
2023/09/30 07:59:25;;;;;;;14.93;9.67;;;19.70;1.00;;;;;;5026624;28;20554;-74
2023/09/30 08:01:52;;;;;;;16.17;10.70;;;19.80;1.00;;;;;;5026360;28;20276;-74
2023/09/30 08:04:18;;;;;;;14.10;9.40;;;19.80;1.00;;;;;;5026590;28;20182;-74
2023/09/30 08:06:44;;;;;;;16.33;9.80;;;20.10;1.00;;;;;;5028992;28;21168;-74
2023/09/30 08:09:13;;;;;;;13.90;8.87;;;20.30;1.00;;;;;;5028401;28;20192;-75
2023/09/30 08:11:39;;;;;;;14.60;8.77;;;20.50;1.00;;;;;;5037415;28;20643;-76
2023/09/30 08:14:06;;;;;;;15.83;8.73;;;20.60;1.00;;;;;;5026192;28;20562;-75
2023/09/30 08:16:41;;;;;;;17.00;9.43;;;20.70;1.00;;;;;;5025226;28;20170;-75
2023/09/30 08:19:07;;;;;;;15.60;9.57;;;20.60;1.00;;;;;;5026342;28;20435;-77
2023/09/30 08:21:32;;;;;;;14.30;8.77;;;20.80;1.00;;;;;;5023464;28;20529;-75
2023/09/30 08:23:58;;;;;;;11.77;7.47;;;20.70;1.00;;;;;;5028876;28;20228;-76
2023/09/30 08:26:24;;;;;;;15.33;8.27;;;;;;;;;;5025313;28;20209;-76
2023/09/30 08:28:50;;;;;;;13.47;8.27;;;22.30;1.00;;;;;;5024189;28;20475;-79
2023/09/30 08:31:15;;;;;;;11.30;6.30;;;23.50;1.00;;;;;;5025627;28;20428;-75
2023/09/30 08:33:43;;;;;;;10.27;5.33;;;27.00;1.00;;;;;;5025186;28;20205;-75
2023/09/30 08:36:10;;;;;;;11.30;5.90;;;25.00;1.00;;;;;;5025930;28;20663;-77
2023/09/30 08:38:36;;;;;;;10.83;5.67;;;25.90;1.00;;;;;;5029771;28;20436;-74
2023/09/30 08:41:02;;;;;;;8.03;5.50;;;26.70;1.00;;;;;;5015214;28;20201;-75
2023/09/30 08:43:30;;;;;;;9.33;5.63;;;26.50;1.00;;;;;;5020093;28;20182;-75
2023/09/30 08:45:56;;;;;;;15.73;4.90;;;26.40;1.00;;;;;;5021970;28;20264;-74
2023/09/30 08:48:24;;;;;;;10.80;5.23;;;27.20;1.00;;;;;;5032247;28;20655;-74
2023/09/30 08:50:52;;;;;;;10.48;5.30;;;28.10;1.00;;;;;;5019794;28;20581;-76
2023/09/30 08:53:18;;;;;;;12.05;5.35;;;28.10;1.00;;;;;;5025368;28;20631;-75
2023/09/30 08:55:45;;;;;;;13.45;4.95;;;28.70;1.00;;;;;;5033098;28;20245;-74
2023/09/30 08:58:12;;;;;;;12.95;4.80;;;29.10;1.00;;;;;;5023326;28;20185;-74
2023/09/30 09:00:38;;;;;;;12.00;5.28;;;29.40;1.00;;;;;;5019623;28;20184;-74
2023/09/30 09:03:08;;;;;;;7.03;4.38;;;29.30;1.00;;;;;;5029127;28;20692;-75
2023/09/30 09:05:34;;;;;;;10.48;4.70;;;29.90;1.00;;;;;;5030282;28;20220;-74
2023/09/30 09:08:00;;;;;;;12.77;4.97;;;29.80;1.00;;;;;;5026719;28;20205;-75
2023/09/30 09:10:25;;;;;;;14.32;4.88;;;29.70;1.00;;;;;;5030120;28;20239;-75
2023/09/30 09:12:56;;;;;;;9.05;4.47;;;29.10;1.00;;;;;;5029015;28;20975;-75
2023/09/30 09:15:28;;;;;;;10.25;5.03;;;29.00;1.00;;;;;;5030802;28;20202;-75
2023/09/30 09:17:54;;;;;;;8.57;4.85;;;29.20;1.00;;;;;;5029734;28;20181;-77
2023/09/30 09:20:22;;;;;;;8.63;4.70;;;29.60;1.00;;;;;;5028234;28;20178;-75
2023/09/30 09:22:53;;;;;;;8.90;4.80;;;30.20;1.00;;;;;;5027643;28;20678;-71
2023/09/30 09:25:21;;;;;;;10.15;4.93;;;30.40;1.00;;;;;;5026580;28;20178;-68
2023/09/30 09:27:47;;;;;;;10.77;4.80;;;31.00;1.00;;;;;;5029372;28;20189;-70
2023/09/30 09:30:19;;;;;;;10.07;4.60;;;31.40;1.00;;;;;;5022411;28;20663;-70
2023/09/30 09:33:01;;;;;;;10.25;4.75;;;31.50;1.00;;;;;;5026702;28;20212;-70
2023/09/30 09:35:32;;;;;;;9.95;4.28;;;31.70;1.00;;;;;;5027933;28;20247;-71
2023/09/30 09:38:03;;;;;;;7.93;4.65;;;32.20;1.00;;;;;;5030523;28;20185;-71
2023/09/30 09:40:32;;;;;;;9.57;4.75;;;32.60;1.00;;;;;;5030740;28;20312;-73
2023/09/30 09:42:58;;;;;;;7.78;4.75;;;32.40;1.00;;;;;;5045240;28;20555;-70
2023/09/30 09:45:27;;;;;;;9.30;4.47;;;33.00;1.00;;;;;;5030616;28;20548;-70
2023/09/30 09:47:54;;;;;;;7.05;4.25;;;33.70;1.00;;;;;;5030922;28;20196;-70
2023/09/30 09:50:21;;;;;;;11.18;4.60;;;34.40;1.00;;;;;;5030065;28;20238;-70
2023/09/30 09:52:50;;;;;;;9.23;4.07;;;34.80;1.00;;;;;;5033885;28;20710;-70
2023/09/30 09:55:17;;;;;;;11.68;3.80;;;35.30;1.00;;;;;;5031042;28;20182;-70
2023/09/30 09:57:43;;;;;;;7.45;4.10;;;35.40;1.00;;;;;;5030246;28;20232;-70
2023/09/30 10:00:18;;;;;;;7.00;3.60;;;35.50;1.00;;;;;;5023684;28;20186;-71
2023/09/30 10:02:48;;;;;;;8.32;3.88;;;34.50;1.00;;;;;;5024388;28;20208;-75
2023/09/30 10:05:15;;;;;;;7.03;3.97;;;33.00;1.00;;;;;;5027219;28;20654;-74
2023/09/30 10:08:10;;;;;;;8.55;4.07;;;32.30;1.00;;;;;;5028691;28;20191;-72
2023/09/30 10:10:37;;;;;;;8.68;4.38;;;32.80;1.00;;;;;;5025912;28;20201;-70
2023/09/30 10:13:03;;;;;;;10.65;4.63;;;33.40;1.00;;;;;;5029713;28;20201;-74
2023/09/30 10:15:30;;;;;;;8.60;4.10;;;34.20;1.00;;;;;;5021433;28;20652;-74
2023/09/30 10:18:00;;;;;;;7.60;4.00;;;34.90;1.00;;;;;;5022012;28;20185;-74
2023/09/30 10:20:31;;;;;;;10.40;4.20;;;35.20;1.00;;;;;;5027497;28;20273;-76
2023/09/30 10:23:19;;;;;;;9.30;3.78;;;35.60;1.00;;;;;;5029077;28;20212;-77
2023/09/30 10:25:49;;;;;;;7.28;4.35;;;35.60;1.00;;;;;;5018471;28;20530;-77
2023/09/30 10:28:38;;;;;;;10.90;3.88;;;36.00;1.00;;;;;;5025499;28;20247;-78
2023/09/30 10:31:12;;;;;;;7.40;4.55;;;35.60;1.00;;;;;;5026396;28;20238;-77
2023/09/30 10:34:00;;;;;;;8.43;4.53;;;34.40;1.00;;;;;;5024202;28;20214;-76
2023/09/30 10:36:39;;;;;;;8.95;4.07;;;34.20;1.00;;;;;;5024326;28;20233;-77
2023/09/30 10:39:08;;;;;;;17.85;4.10;;;35.30;1.00;;;;;;5022464;28;20197;-78
2023/09/30 10:41:45;;;;;;;9.38;4.70;;;35.50;1.00;;;;;;5026702;28;20308;-76
2023/09/30 10:44:26;;;;;;;15.60;4.40;;;35.40;1.00;;;;;;5017708;28;20197;-75
2023/09/30 10:46:58;;;;;;;11.18;4.65;;;36.00;1.00;;;;;;5019599;28;20169;-76
2023/09/30 10:49:24;;;;;;;20.50;4.95;;;36.70;1.00;;;;;;5029539;28;20181;-76
2023/09/30 10:51:51;;;;;;;17.20;4.60;;;36.50;1.00;;;;;;5023412;28;20209;-75
2023/09/30 10:54:25;;;;;;;10.57;4.53;;;36.70;1.00;;;;;;5025586;28;20205;-76
2023/09/30 10:56:52;;;;;;;9.57;4.78;;;37.30;1.00;;;;;;5023705;28;20200;-76
2023/09/30 10:59:25;;;;;;;9.45;4.55;;;36.90;1.00;;;;;;5024450;28;20169;-77
2023/09/30 11:01:53;;;;;;;8.13;4.28;;;36.50;1.00;;;;;;5037923;28;20208;-76
2023/09/30 11:04:19;;;;;;;12.23;4.50;;;36.60;1.00;;;;;;5026928;28;20208;-77
2023/09/30 11:06:45;;;;;;;9.75;4.88;;;36.60;1.00;;;;;;5027164;28;20200;-77
2023/09/30 11:09:22;;;;;;;15.20;5.13;;;36.10;1.00;;;;;;5022602;28;20258;-76
2023/09/30 11:11:49;;;;;;;9.13;4.65;;;36.70;1.00;;;;;;5026643;28;20201;-78
2023/09/30 11:14:23;;;;;;;8.95;4.60;;;36.90;1.00;;;;;;5026298;28;20571;-75
2023/09/30 11:16:51;;;;;;;13.20;4.28;;;36.60;1.00;;;;;;5025630;28;20178;-76
2023/09/30 11:19:20;;;;;;;13.73;4.60;;;36.60;1.00;;;;;;5025570;28;20177;-78
2023/09/30 11:21:46;;;;;;;11.63;4.63;;;36.90;1.00;;;;;;5026328;28;20208;-76
2023/09/30 11:24:13;;;;;;;8.40;4.30;;;36.90;1.00;;;;;;5026745;28;20185;-76
2023/09/30 11:26:41;;;;;;;9.85;5.00;;;36.60;1.00;;;;;;5027589;28;20550;-74
2023/09/30 11:29:08;;;;;;;8.52;4.70;;;36.00;1.00;;;;;;5022000;28;20197;-75
2023/09/30 11:31:37;;;;;;;7.63;4.55;;;37.00;1.00;;;;;;5025474;28;20204;-77
2023/09/30 11:34:03;;;;;;;8.65;5.10;;;36.80;1.00;;;;;;5024131;28;20215;-76
2023/09/30 11:36:33;;;;;;;8.02;5.00;;;36.40;1.00;;;;;;5027109;28;20177;-76
2023/09/30 11:38:58;;;;;;;9.82;5.03;;;36.60;1.00;;;;;;5021631;28;20350;-76
2023/09/30 11:41:39;;;;;;;10.18;5.05;;;35.80;1.00;;;;;;5031552;28;20361;-75
2023/09/30 11:44:10;;;;;;;9.02;4.80;;;36.30;1.00;;;;;;5030303;28;20285;-72
2023/09/30 11:46:55;;;;;;;9.45;5.00;;;37.50;1.00;;;;;;5031419;28;20208;-71
2023/09/30 11:49:32;;;;;;;10.05;4.60;;;37.40;1.00;;;;;;5033107;28;20318;-71
2023/09/30 11:52:09;;;;;;;9.48;5.93;;;37.60;1.00;;;;;;5027684;28;20204;-71
2023/09/30 11:54:41;;;;;;;9.30;5.40;;;37.90;1.00;;;;;;5020445;28;20452;-72
2023/09/30 11:57:10;;;;;;;9.85;5.10;;;38.70;1.00;;;;;;5031498;28;20447;-79
2023/09/30 11:59:37;;;;;;;8.27;4.85;;;39.00;1.00;;;;;;5020283;28;20555;-75
2023/09/30 12:02:05;;;;;;;11.05;5.57;;;36.80;1.00;;;;;;5027800;28;20694;-76
2023/09/30 12:04:31;;;;;;;10.55;5.68;;;35.50;1.00;;;;;;5022761;28;20185;-74
2023/09/30 12:06:57;;;;;;;9.73;5.78;;;33.50;1.00;;;;;;5038603;28;20235;-74
2023/09/30 12:09:26;;;;;;;13.88;6.00;;;34.10;1.00;;;;;;5030942;28;20180;-75
2023/09/30 12:11:53;;;;;;;12.00;6.07;;;34.50;1.00;;;;;;5028472;28;20706;-77
2023/09/30 12:14:19;;;;;;;9.82;6.60;;;34.90;1.00;;;;;;5030333;28;20710;-74
2023/09/30 12:16:45;;;;;;;10.38;5.82;;;35.30;1.00;;;;;;5033497;28;20544;-73
2023/09/30 12:19:13;;;;;;;12.32;6.22;;;35.90;1.00;;;;;;5029529;28;20551;-77
2023/09/30 12:21:40;;;;;;;11.45;6.55;;;36.00;1.00;;;;;;5026055;28;20190;-74
2023/09/30 12:24:07;;;;;;;11.60;6.30;;;35.70;1.00;;;;;;5024371;28;20212;-73
2023/09/30 12:26:33;;;;;;;12.52;5.97;;;34.50;1.00;;;;;;5030774;28;20177;-75
2023/09/30 12:28:58;;;;;;;11.38;6.40;;;32.90;1.00;;;;;;5031225;28;20204;-74
2023/09/30 12:31:24;;;;;;;11.27;5.95;;;30.40;1.00;;;;;;5033009;28;20241;-76
2023/09/30 12:33:53;;;;;;;11.43;6.25;;;30.10;1.00;;;;;;5026693;28;20202;-73
2023/09/30 12:36:19;;;;;;;11.43;6.70;;;29.20;1.00;;;;;;5026991;28;20205;-79
2023/09/30 12:38:45;;;;;;;18.00;6.75;;;28.60;1.00;;;;;;5030224;28;20279;-76
2023/09/30 12:41:11;;;;;;;12.20;6.80;;;29.70;1.00;;;;;;5024018;28;20208;-78
2023/09/30 12:43:37;;;;;;;15.35;7.22;;;29.80;1.00;;;;;;5029390;28;20188;-75
2023/09/30 12:46:04;;;;;;;11.77;6.70;;;30.70;1.00;;;;;;5026561;28;20193;-78
2023/09/30 12:48:30;;;;;;;14.10;6.38;;;31.70;1.00;;;;;;5034604;28;20185;-74
2023/09/30 12:50:55;;;;;;;15.10;7.53;;;32.30;1.00;;;;;;5027559;28;20243;-76